createdAt,value
2022-08-03T00:02:41.311Z,4
2022-08-03T00:05:41.314Z,1
2022-08-03T00:08:41.326Z,2
2022-08-03T00:11:41.328Z,1
2022-08-03T00:14:41.335Z,2
2022-08-03T00:17:41.352Z,0
2022-08-03T00:20:41.360Z,1
2022-08-03T00:23:41.377Z,1
2022-08-03T00:26:41.377Z,0
2022-08-03T00:29:41.401Z,3
2022-08-03T00:32:41.415Z,2
2022-08-03T00:35:41.407Z,2
2022-08-03T00:38:41.420Z,4
2022-08-03T00:41:41.433Z,2
2022-08-03T00:44:41.443Z,4
2022-08-03T00:47:41.466Z,1
2022-08-03T00:50:41.478Z,2
2022-08-03T00:53:41.469Z,3
2022-08-03T00:56:41.481Z,2
2022-08-03T00:59:41.489Z,2
2022-08-03T01:02:41.478Z,1
2022-08-03T01:05:41.504Z,0
2022-08-03T01:08:41.503Z,1
2022-08-03T01:11:41.514Z,1
2022-08-03T01:14:41.550Z,1
2022-08-03T01:17:41.594Z,0
2022-08-03T01:20:41.572Z,3
2022-08-03T01:23:41.563Z,1
2022-08-03T01:26:41.564Z,2
2022-08-03T01:29:41.594Z,2
2022-08-03T01:32:41.573Z,3
2022-08-03T01:35:41.591Z,1
2022-08-03T01:38:41.593Z,2
2022-08-03T01:41:41.593Z,3
2022-08-03T01:44:41.628Z,3
2022-08-03T01:47:41.632Z,4
2022-08-03T01:50:41.635Z,2
2022-08-03T01:53:41.640Z,4
2022-08-03T01:56:41.653Z,5
2022-08-03T01:59:41.675Z,3
2022-08-03T02:02:41.675Z,3
2022-08-03T02:05:41.667Z,2
2022-08-03T02:08:41.678Z,4
2022-08-03T02:11:41.697Z,4
2022-08-03T02:14:41.697Z,2
2022-08-03T02:17:41.707Z,7
2022-08-03T02:20:41.712Z,6
2022-08-03T02:23:41.736Z,4
2022-08-03T02:26:41.728Z,4
2022-08-03T02:29:41.839Z,5
2022-08-03T02:32:41.758Z,3
2022-08-03T02:35:41.753Z,3
2022-08-03T02:38:41.786Z,3
2022-08-03T02:41:41.796Z,3
2022-08-03T02:44:41.792Z,2
2022-08-03T02:47:41.796Z,3
2022-08-03T02:50:41.815Z,4
2022-08-03T02:53:41.834Z,1
2022-08-03T02:56:41.814Z,3
2022-08-03T02:59:41.847Z,3
2022-08-03T03:02:41.840Z,4
2022-08-03T03:05:41.886Z,3
2022-08-03T03:08:41.885Z,4
2022-08-03T03:11:41.868Z,4
2022-08-03T03:14:41.895Z,3
2022-08-03T03:17:41.894Z,2
2022-08-03T03:20:41.891Z,3
2022-08-03T03:23:41.915Z,2
2022-08-03T03:26:41.901Z,2
2022-08-03T03:29:41.920Z,2
2022-08-03T03:32:41.964Z,2
2022-08-03T03:35:41.961Z,3
2022-08-03T03:38:41.950Z,3
2022-08-03T03:41:41.964Z,2
2022-08-03T03:44:41.969Z,4
2022-08-03T03:50:41.990Z,1
2022-08-03T03:53:42.000Z,2
2022-08-03T03:56:42.011Z,1
2022-08-03T03:59:42.023Z,2
2022-08-03T04:02:42.036Z,2
2022-08-03T04:05:42.061Z,1
2022-08-03T04:08:42.045Z,0
2022-08-03T04:11:42.051Z,1
2022-08-03T04:14:42.057Z,1
2022-08-03T04:17:42.072Z,3
2022-08-03T04:20:42.083Z,3
2022-08-03T04:23:42.102Z,0
2022-08-03T04:26:42.097Z,1
2022-08-03T04:29:42.131Z,2
2022-08-03T04:32:42.126Z,0
2022-08-03T04:35:42.128Z,1
2022-08-03T04:38:42.159Z,0
2022-08-03T04:41:42.162Z,1
2022-08-03T04:44:42.162Z,1
2022-08-03T04:47:42.180Z,1
2022-08-03T04:50:42.183Z,1
2022-08-03T04:53:42.193Z,1
2022-08-03T04:56:42.203Z,0
2022-08-03T04:59:42.209Z,0
2022-08-03T05:02:42.212Z,0
2022-08-03T05:05:42.210Z,0
2022-08-03T05:08:42.229Z,0
2022-08-03T05:11:42.243Z,0
2022-08-03T05:14:42.253Z,0
2022-08-03T05:17:42.258Z,1
2022-08-03T05:20:42.253Z,0
2022-08-03T05:23:42.278Z,1
2022-08-03T05:26:42.269Z,2
2022-08-03T05:29:42.291Z,3
2022-08-03T05:32:42.307Z,3
2022-08-03T05:35:42.306Z,4
2022-08-03T05:38:42.319Z,0
2022-08-03T05:41:42.319Z,5
2022-08-03T05:44:42.323Z,4
2022-08-03T05:47:42.338Z,3
2022-08-03T05:50:42.357Z,4
2022-08-03T05:53:42.373Z,1
2022-08-03T05:56:42.372Z,3
2022-08-03T05:59:42.371Z,2
2022-08-03T06:02:42.411Z,2
2022-08-03T06:05:42.395Z,3
2022-08-03T06:08:42.411Z,3
2022-08-03T06:11:42.415Z,3
2022-08-03T06:14:42.433Z,4
2022-08-03T06:17:42.437Z,4
2022-08-03T06:20:42.468Z,4
2022-08-03T06:23:42.453Z,5
2022-08-03T06:26:42.472Z,4
2022-08-03T06:29:42.524Z,6
2022-08-03T06:32:42.474Z,5
2022-08-03T06:35:42.484Z,9
2022-08-03T06:38:42.511Z,6
2022-08-03T06:41:42.514Z,8
2022-08-03T06:44:42.536Z,4
2022-08-03T06:47:42.536Z,4
2022-08-03T06:50:42.547Z,4
2022-08-03T06:53:42.539Z,2
2022-08-03T06:56:42.542Z,4
2022-08-03T06:59:42.554Z,2
2022-08-03T07:02:42.574Z,4
2022-08-03T07:05:42.567Z,1
2022-08-03T07:08:42.584Z,3
2022-08-03T07:11:42.620Z,3
2022-08-03T07:14:42.628Z,3
2022-08-03T07:17:42.621Z,4
2022-08-03T07:20:42.626Z,4
2022-08-03T07:23:42.625Z,4
2022-08-03T07:26:42.635Z,4
2022-08-03T07:29:42.620Z,3
2022-08-03T07:32:42.640Z,2
2022-08-03T07:35:42.659Z,3
2022-08-03T07:38:42.654Z,3
2022-08-03T07:41:42.662Z,4
2022-08-03T07:44:42.679Z,3
2022-08-03T07:47:42.697Z,2
2022-08-03T07:50:42.699Z,3
2022-08-03T07:53:42.734Z,3
2022-08-03T07:56:42.737Z,2
2022-08-03T07:59:42.737Z,4
2022-08-03T08:02:42.742Z,3
2022-08-03T08:05:42.730Z,3
2022-08-03T08:08:42.735Z,2
2022-08-03T08:11:42.758Z,2
2022-08-03T08:14:42.781Z,4
2022-08-03T08:17:42.772Z,2
2022-08-03T08:20:42.786Z,1
2022-08-03T08:23:42.814Z,3
2022-08-03T08:26:42.808Z,3
2022-08-03T08:29:42.815Z,3
2022-08-03T08:32:42.814Z,3
2022-08-03T08:35:42.863Z,1
2022-08-03T08:38:42.836Z,3
2022-08-03T08:41:42.859Z,2
2022-08-03T08:44:42.852Z,3
2022-08-03T08:47:42.868Z,3
2022-08-03T08:50:42.876Z,2
2022-08-03T08:53:42.906Z,3
2022-08-03T08:56:42.909Z,3
2022-08-03T08:59:42.905Z,3
2022-08-03T09:02:42.936Z,1
2022-08-03T09:05:42.923Z,1
2022-08-03T09:08:42.983Z,2
2022-08-03T09:11:42.955Z,2
2022-08-03T09:14:42.960Z,1
2022-08-03T09:17:42.970Z,2
2022-08-03T09:20:42.982Z,1
2022-08-03T09:23:42.988Z,1
2022-08-03T09:26:42.996Z,1
2022-08-03T09:29:43.054Z,2
2022-08-03T09:32:43.002Z,1
2022-08-03T09:35:43.018Z,1
2022-08-03T09:38:43.031Z,1
2022-08-03T09:41:43.035Z,3
2022-08-03T09:44:43.060Z,2
2022-08-03T09:47:43.063Z,0
2022-08-03T09:50:43.072Z,1
2022-08-03T09:53:43.094Z,1
2022-08-03T09:56:43.097Z,1
2022-08-03T09:59:43.106Z,3
2022-08-03T10:02:43.111Z,1
2022-08-03T10:05:43.147Z,2
2022-08-03T10:11:43.144Z,1
2022-08-03T10:14:43.163Z,1
2022-08-03T10:17:43.496Z,1
2022-08-03T10:20:43.158Z,2
2022-08-03T10:23:43.186Z,1
2022-08-03T10:26:43.178Z,0
2022-08-03T10:29:43.185Z,1
2022-08-03T10:32:43.210Z,0
2022-08-03T10:35:43.209Z,0
2022-08-03T10:38:43.213Z,0
2022-08-03T10:41:43.237Z,0
2022-08-03T10:44:43.247Z,0
2022-08-03T10:47:43.247Z,1
2022-08-03T10:50:43.274Z,0
2022-08-03T10:53:43.287Z,1
2022-08-03T10:56:43.284Z,2
2022-08-03T10:59:43.280Z,0
2022-08-03T11:02:43.307Z,0
2022-08-03T11:05:43.307Z,2
2022-08-03T11:08:43.324Z,1
2022-08-03T11:11:43.319Z,1
2022-08-03T11:14:43.331Z,0
2022-08-03T11:17:43.355Z,0
2022-08-03T11:20:43.368Z,0
2022-08-03T11:23:43.362Z,0
2022-08-03T11:26:43.415Z,0
2022-08-03T11:29:43.380Z,0
2022-08-03T11:32:43.403Z,0
2022-08-03T11:35:43.408Z,1
2022-08-03T11:38:43.402Z,0
2022-08-03T11:41:43.423Z,1
2022-08-03T11:44:43.448Z,1
2022-08-03T11:47:43.516Z,0
2022-08-03T11:50:43.453Z,0
2022-08-03T11:53:43.457Z,0
2022-08-03T11:56:43.488Z,1
2022-08-03T11:59:43.477Z,1
2022-08-03T12:02:43.491Z,1
2022-08-03T12:05:43.483Z,0
2022-08-03T12:08:43.540Z,1
2022-08-03T12:11:43.524Z,1
2022-08-03T12:14:43.541Z,2
2022-08-03T12:17:43.560Z,1
2022-08-03T12:20:43.564Z,1
2022-08-03T12:23:43.548Z,1
2022-08-03T12:26:43.563Z,1
2022-08-03T12:29:43.566Z,1
2022-08-03T12:32:43.598Z,1
2022-08-03T12:35:43.585Z,2
2022-08-03T12:38:43.605Z,2
2022-08-03T12:41:43.596Z,1
2022-08-03T12:44:43.607Z,1
2022-08-03T12:47:43.650Z,2
2022-08-03T12:50:43.638Z,1
2022-08-03T12:53:43.650Z,2
2022-08-03T12:56:43.660Z,1
2022-08-03T12:59:43.666Z,1
2022-08-03T13:02:43.670Z,2
2022-08-03T13:05:43.676Z,0
2022-08-03T13:08:43.684Z,1
2022-08-03T13:11:43.708Z,1
2022-08-03T13:14:43.703Z,2
2022-08-03T13:17:43.718Z,2
2022-08-03T13:20:43.731Z,2
2022-08-03T13:23:43.752Z,2
2022-08-03T13:26:43.738Z,2
2022-08-03T13:29:43.771Z,3
2022-08-03T13:32:43.759Z,2
2022-08-03T13:35:43.792Z,2
2022-08-03T13:38:43.870Z,1
2022-08-03T13:41:43.799Z,1
2022-08-03T13:44:43.788Z,0
2022-08-03T13:47:43.816Z,0
2022-08-03T13:50:43.823Z,0
2022-08-03T13:53:43.828Z,1
2022-08-03T13:56:43.850Z,1
2022-08-03T13:59:43.871Z,1
2022-08-03T14:02:43.872Z,1
2022-08-03T14:05:43.874Z,1
2022-08-03T14:08:43.891Z,1
2022-08-03T14:11:43.883Z,2
2022-08-03T14:14:43.908Z,1
2022-08-03T14:17:43.897Z,0
2022-08-03T14:20:43.905Z,0
2022-08-03T14:23:43.938Z,0
2022-08-03T14:26:43.931Z,0
2022-08-03T14:29:43.943Z,0
2022-08-03T14:32:43.953Z,0
2022-08-03T14:35:43.956Z,1
2022-08-03T14:38:44.005Z,0
2022-08-03T14:41:44.000Z,0
2022-08-03T14:44:43.994Z,0
2022-08-03T14:47:44.000Z,1
2022-08-03T14:50:44.042Z,1
2022-08-03T14:53:44.043Z,1
2022-08-03T14:56:44.041Z,1
2022-08-03T14:59:44.039Z,2
2022-08-03T15:02:44.054Z,0
2022-08-03T15:05:44.078Z,0
2022-08-03T15:08:44.098Z,1
2022-08-03T15:11:44.106Z,0
2022-08-03T15:14:44.082Z,0
2022-08-03T15:17:56.870Z,0
2022-08-03T15:20:44.105Z,0
2022-08-03T15:23:44.130Z,0
2022-08-03T15:26:44.123Z,0
2022-08-03T15:29:44.149Z,0
2022-08-03T15:32:44.142Z,0
2022-08-03T15:35:44.148Z,0
2022-08-03T15:38:44.180Z,0
2022-08-03T15:41:44.167Z,1
2022-08-03T15:44:44.171Z,1
2022-08-03T15:47:44.169Z,0
2022-08-03T15:50:44.181Z,1
2022-08-03T15:53:44.198Z,0
2022-08-03T15:56:44.200Z,2
2022-08-03T15:59:44.226Z,0
2022-08-03T16:02:44.230Z,0
2022-08-03T16:05:44.244Z,0
2022-08-03T16:08:44.246Z,1
2022-08-03T16:11:44.250Z,0
2022-08-03T16:14:44.260Z,1
2022-08-03T16:17:44.310Z,1
2022-08-03T16:20:44.282Z,1
2022-08-03T16:23:44.292Z,0
2022-08-03T16:26:44.303Z,0
2022-08-03T16:29:44.302Z,0
2022-08-03T16:32:44.306Z,0
2022-08-03T16:35:44.328Z,0
2022-08-03T16:38:44.341Z,1
2022-08-03T16:41:44.345Z,0
2022-08-03T16:44:44.360Z,1
2022-08-03T16:47:44.371Z,0
2022-08-03T16:50:44.378Z,0
2022-08-03T16:53:44.368Z,0
2022-08-03T16:56:44.397Z,0
2022-08-03T16:59:44.397Z,0
2022-08-03T17:02:44.471Z,1
2022-08-03T17:05:44.430Z,0
2022-08-03T17:08:44.434Z,1
2022-08-03T17:11:44.453Z,0
2022-08-03T17:14:44.479Z,0
2022-08-03T17:17:44.471Z,0
2022-08-03T17:20:44.478Z,0
2022-08-03T17:23:44.498Z,0
2022-08-03T17:26:44.516Z,0
2022-08-03T17:29:44.510Z,0
2022-08-03T17:32:44.497Z,0
2022-08-03T17:35:44.552Z,0
2022-08-03T17:38:44.539Z,0
2022-08-03T17:41:44.523Z,0
2022-08-03T17:44:44.563Z,0
2022-08-03T17:47:44.588Z,0
2022-08-03T17:50:44.567Z,0
2022-08-03T17:53:44.607Z,0
2022-08-03T17:56:44.602Z,0
2022-08-03T17:59:44.594Z,0
2022-08-03T18:02:44.604Z,0
2022-08-03T18:05:53.935Z,0
2022-08-03T18:08:44.661Z,2
2022-08-03T18:11:44.639Z,1
2022-08-03T18:14:44.646Z,4
2022-08-03T18:17:44.648Z,1
2022-08-03T18:20:44.649Z,2
2022-08-03T18:23:44.689Z,2
2022-08-03T18:26:44.709Z,1
2022-08-03T18:29:44.690Z,2
2022-08-03T18:32:44.702Z,1
2022-08-03T18:35:44.753Z,1
2022-08-03T18:38:44.757Z,1
2022-08-03T18:41:44.716Z,2
2022-08-03T18:44:44.721Z,1
2022-08-03T18:47:44.767Z,2
2022-08-03T18:50:44.753Z,1
2022-08-03T18:53:44.771Z,1
2022-08-03T18:56:44.791Z,1
2022-08-03T18:59:44.782Z,2
2022-08-03T19:02:44.785Z,2
2022-08-03T19:05:44.807Z,1
2022-08-03T19:08:44.897Z,1
2022-08-03T19:11:44.821Z,3
2022-08-03T19:14:44.841Z,3
2022-08-03T19:17:44.867Z,2
2022-08-03T19:20:44.868Z,2
2022-08-03T19:23:44.874Z,3
2022-08-03T19:26:44.874Z,1
2022-08-03T19:29:44.882Z,1
2022-08-03T19:32:44.899Z,1
2022-08-03T19:35:44.884Z,1
2022-08-03T19:38:44.910Z,3
2022-08-03T19:41:44.918Z,3
2022-08-03T19:44:44.946Z,1
2022-08-03T19:47:44.958Z,1
2022-08-03T19:50:44.943Z,2
2022-08-03T19:53:44.980Z,4
2022-08-03T19:56:44.997Z,2
2022-08-03T19:59:44.977Z,1
2022-08-03T20:02:45.008Z,1
2022-08-03T20:05:44.964Z,2
2022-08-03T20:08:44.988Z,1
2022-08-03T20:11:45.005Z,1
2022-08-03T20:14:44.995Z,1
2022-08-03T20:17:45.041Z,1
2022-08-03T20:20:45.026Z,1
2022-08-03T20:23:45.064Z,1
2022-08-03T20:26:45.058Z,2
2022-08-03T20:29:45.048Z,1
2022-08-03T20:32:45.083Z,2
2022-08-03T20:35:45.064Z,0
2022-08-03T20:38:45.094Z,1
2022-08-03T20:41:45.096Z,1
2022-08-03T20:44:45.132Z,1
2022-08-03T20:47:45.103Z,0
2022-08-03T20:50:45.149Z,1
2022-08-03T20:53:45.116Z,3
2022-08-03T20:56:45.144Z,1
2022-08-03T20:59:45.144Z,2
2022-08-03T21:02:45.179Z,3
2022-08-03T21:05:45.162Z,1
2022-08-03T21:08:45.163Z,1
2022-08-03T21:11:45.211Z,2
2022-08-03T21:14:45.188Z,2
2022-08-03T21:17:45.202Z,1
2022-08-03T21:20:45.216Z,2
2022-08-03T21:23:45.216Z,3
2022-08-03T21:26:45.225Z,1
2022-08-03T21:29:45.234Z,2
2022-08-03T21:32:45.243Z,1
2022-08-03T21:35:45.250Z,2
2022-08-03T21:38:45.278Z,1
2022-08-03T21:41:45.269Z,2
2022-08-03T21:44:45.272Z,4
2022-08-03T21:47:45.285Z,1
2022-08-03T21:50:45.287Z,3
2022-08-03T21:53:45.305Z,2
2022-08-03T21:56:45.301Z,2
2022-08-03T21:59:45.320Z,1
2022-08-03T22:02:45.320Z,0
2022-08-03T22:05:45.334Z,1
2022-08-03T22:08:45.344Z,1
2022-08-03T22:11:45.335Z,0
2022-08-03T22:14:45.354Z,1
2022-08-03T22:17:45.372Z,2
2022-08-03T22:20:45.392Z,1
2022-08-03T22:23:45.396Z,1
2022-08-03T22:26:45.415Z,1
2022-08-03T22:29:45.395Z,1
2022-08-03T22:32:45.422Z,1
2022-08-03T22:35:45.449Z,2
2022-08-03T22:38:45.436Z,1
2022-08-03T22:41:45.451Z,2
2022-08-03T22:44:45.441Z,0
2022-08-03T22:47:45.465Z,1
2022-08-03T22:50:45.470Z,0
2022-08-03T22:53:45.465Z,0
2022-08-03T22:56:45.485Z,1
2022-08-03T22:59:45.501Z,1
2022-08-03T23:02:45.495Z,2
2022-08-03T23:05:45.513Z,1
2022-08-03T23:08:45.536Z,1
2022-08-03T23:11:45.533Z,1
2022-08-03T23:14:45.530Z,1
2022-08-03T23:17:45.563Z,1
2022-08-03T23:20:45.567Z,1
2022-08-03T23:23:45.581Z,1
2022-08-03T23:26:45.587Z,3
2022-08-03T23:29:45.584Z,1
2022-08-03T23:32:45.632Z,1
2022-08-03T23:35:45.622Z,0
2022-08-03T23:38:45.621Z,2
2022-08-03T23:41:45.637Z,1
2022-08-03T23:44:45.643Z,2
2022-08-03T23:47:45.645Z,1
2022-08-03T23:50:45.687Z,1
2022-08-03T23:53:45.683Z,1
2022-08-03T23:56:45.672Z,1
2022-08-03T23:59:45.699Z,1
